Terminal Aerodrome Forecast
Issued by NWS San Angelo, TX

Home | Current Version | Previous Version | Text Only | Print | Product List | Glossary On
Versions: 1 2 3 4 5 6 7 8 9 10 11 12 13 14 15 16 17 18 19 20 21 22
000
FTUS44 KSJT 260700 AAA
TAFABI
TAF AMD
KABI 260756Z 2608/2706 17011KT P6SM SCT005
      TEMPO 2608/2609 BKN005
     FM261400 21013G20KT P6SM SKC
     FM262300 17010KT P6SM BKN250=

USA.gov is the U.S. government's official web portal to all federal, state and local government web resources and services.